Time;durP1;ratioP1;P1;durP2;ratioP2;P2;SDS_P1;SDS_P2;PMS_P1;PMS_P2;Temp;Humidity;BMP_temperature;BMP_pressure;BME280_temperature;BME280_humidity;BME280_pressure;Samples;Min_cycle;Max_cycle;Signal;HPM_P1;HPM_P2
2022/10/26 00:01:22;;;;;;;24.50;13.30;;;;;;;11.81;74.21;99242.75;103117;1296;99240;-75
2022/10/26 00:03:50;;;;;;;24.00;12.90;;;;;;;11.78;74.30;99240.00;103069;1296;108083;-75
2022/10/26 00:06:23;;;;;;;23.70;12.70;;;;;;;11.75;74.24;99242.28;103108;1298;99351;-75
2022/10/26 00:08:54;;;;;;;23.80;12.50;;;;;;;11.73;74.23;99246.73;103108;1298;96585;-76
2022/10/26 00:11:24;;;;;;;24.60;11.60;;;;;;;11.70;74.30;99243.94;103078;1299;112476;-75
2022/10/26 00:13:52;;;;;;;25.00;13.00;;;;;;;11.68;74.40;99241.41;103093;1307;99393;-75
2022/10/26 00:16:25;;;;;;;25.50;13.10;;;;;;;11.68;74.40;99247.84;103046;1304;107157;-74
2022/10/26 00:18:53;;;;;;;27.20;13.10;;;;;;;11.66;74.38;99245.80;102888;1296;99462;-75
2022/10/26 00:21:21;;;;;;;25.20;13.60;;;;;;;11.64;74.44;99243.81;103098;1297;99298;-76
2022/10/26 00:23:49;;;;;;;23.40;12.40;;;;;;;11.63;74.40;99246.04;103126;1304;112121;-76
2022/10/26 00:26:17;;;;;;;23.10;12.70;;;;;;;11.61;74.54;99245.62;103051;1296;97001;-75
2022/10/26 00:28:46;;;;;;;23.30;12.30;;;;;;;11.59;74.40;99248.98;103105;1296;107526;-76
2022/10/26 00:31:16;;;;;;;24.40;12.50;;;;;;;11.57;74.42;99247.54;102951;1296;99256;-76
2022/10/26 00:33:45;;;;;;;23.20;12.80;;;;;;;11.56;74.47;99253.14;103062;1303;99244;-76
2022/10/26 00:36:15;;;;;;;28.90;12.80;;;;;;;11.53;74.52;99251.73;102867;1307;111460;-76
2022/10/26 00:38:54;;;;;;;35.50;14.90;;;;;;;11.52;74.50;99252.18;103055;1298;99308;-78
2022/10/26 00:41:28;;;;;;;24.40;12.40;;;;;;;11.51;74.45;99253.52;103001;1297;107354;-78
2022/10/26 00:43:57;;;;;;;23.40;13.30;;;;;;;11.49;74.47;99254.91;102989;1300;99785;-79
2022/10/26 00:46:43;;;;;;;25.50;13.00;;;;;;;11.46;74.51;99252.95;103027;1297;99246;-77
2022/10/26 00:49:20;;;;;;;26.80;13.50;;;;;;;11.44;74.55;99257.19;102993;1297;110437;-75
2022/10/26 00:51:52;;;;;;;25.90;13.00;;;;;;;11.43;74.61;99255.69;103035;1304;99251;-75
2022/10/26 00:54:21;;;;;;;25.20;13.50;;;;;;;11.41;74.65;99254.93;103023;1297;107566;-74
2022/10/26 00:56:53;;;;;;;26.70;13.80;;;;;;;11.40;74.53;99253.05;103075;1291;99338;-75
2022/10/26 00:59:23;;;;;;;25.20;13.40;;;;;;;11.40;74.56;99255.58;102999;1298;99229;-77
2022/10/26 01:01:52;;;;;;;24.00;13.20;;;;;;;11.39;74.61;99254.73;102917;1300;112531;-75
2022/10/26 01:04:21;;;;;;;24.80;13.50;;;;;;;11.38;74.64;99254.98;103079;1304;99327;-75
2022/10/26 01:06:51;;;;;;;26.30;13.20;;;;;;;11.38;74.69;99254.95;102997;1297;107574;-74
2022/10/26 01:09:20;;;;;;;26.60;13.50;;;;;;;11.39;74.65;99257.56;103013;1301;99422;-77
2022/10/26 01:11:48;;;;;;;27.00;14.30;;;;;;;11.40;74.68;99259.45;103092;1300;98318;-74
2022/10/26 01:14:18;;;;;;;25.60;13.30;;;;;;;11.40;74.65;99258.52;103057;1297;112072;-75
2022/10/26 01:17:10;;;;;;;25.90;13.80;;;;;;;11.41;74.78;99263.26;103100;1297;99678;-75
2022/10/26 01:20:26;;;;;;;26.90;13.80;;;;;;;11.42;74.71;99261.76;102888;1294;107451;-74
2022/10/26 01:23:05;;;;;;;27.80;14.40;;;;;;;11.43;74.79;99259.91;103037;1305;99350;-73
2022/10/26 01:26:03;;;;;;;26.30;13.20;;;;;;;11.44;74.84;99257.86;103038;1298;100419;-77
2022/10/26 01:28:58;;;;;;;23.60;12.30;;;;;;;11.45;74.78;99256.03;103049;1297;112086;-76
2022/10/26 01:31:39;;;;;;;27.20;12.70;;;;;;;11.46;74.84;99250.80;102916;1299;100000;-77
2022/10/26 01:34:37;;;;;;;24.10;12.60;;;;;;;11.47;74.70;99246.83;103064;1297;107620;-76
2022/10/26 01:37:14;;;;;;;25.90;12.80;;;;;;;11.47;74.88;99248.60;103017;1288;99266;-75
2022/10/26 01:39:52;;;;;;;25.30;13.40;;;;;;;11.47;74.77;99254.31;103066;1304;99241;-76
2022/10/26 01:42:23;;;;;;;26.70;13.50;;;;;;;11.46;74.79;99256.30;103076;1300;113109;-76
2022/10/26 01:45:01;;;;;;;27.00;13.10;;;;;;;11.46;74.75;99259.20;102972;1298;99277;-75
2022/10/26 01:47:33;;;;;;;26.30;12.70;;;;;;;11.45;74.85;99262.98;103041;1290;107500;-75
2022/10/26 01:50:04;;;;;;;25.00;13.30;;;;;;;11.44;74.83;99259.45;103141;1304;99282;-76
2022/10/26 01:52:33;;;;;;;26.90;13.00;;;;;;;11.45;74.95;99260.66;103150;1305;99443;-77
2022/10/26 01:55:25;;;;;;;26.10;13.60;;;;;;;11.45;74.91;99262.77;103092;1297;112505;-76
2022/10/26 01:58:05;;;;;;;24.00;12.10;;;;;;;11.45;74.86;99265.98;103100;1289;99268;-76
2022/10/26 02:00:44;;;;;;;28.10;13.30;;;;;;;11.45;74.89;99271.48;103041;1304;106882;-76
2022/10/26 02:03:29;;;;;;;24.20;13.30;;;;;;;11.46;74.98;99268.59;103082;1304;99379;-76
2022/10/26 02:06:14;;;;;;;30.50;14.20;;;;;;;11.47;74.93;99270.98;103115;1304;99344;-76
2022/10/26 02:09:11;;;;;;;22.50;13.00;;;;;;;11.50;74.95;99271.48;103076;1290;112503;-75
2022/10/26 02:11:45;;;;;;;23.40;12.90;;;;;;;11.53;75.02;99268.10;103107;1304;99247;-75
2022/10/26 02:14:41;;;;;;;23.60;12.60;;;;;;;11.55;75.10;99268.64;103084;1297;107436;-76
2022/10/26 02:17:28;;;;;;;25.40;13.70;;;;;;;11.56;75.04;99269.11;102951;1296;99362;-75
2022/10/26 02:20:06;;;;;;;25.60;14.10;;;;;;;11.57;75.07;99270.13;103010;1297;99270;-75
2022/10/26 02:22:40;;;;;;;25.40;14.10;;;;;;;11.58;75.04;99272.52;102896;1301;113538;-75
2022/10/26 02:25:15;;;;;;;26.30;14.10;;;;;;;11.58;75.07;99279.41;103049;1303;99310;-74
2022/10/26 02:27:53;;;;;;;29.70;13.80;;;;;;;11.58;75.07;99278.73;102985;1304;107122;-73
2022/10/26 02:30:21;;;;;;;28.40;14.10;;;;;;;11.58;75.20;99281.53;103123;1297;99173;-76
2022/10/26 02:32:54;;;;;;;27.70;13.40;;;;;;;11.58;75.04;99279.98;104468;1288;99193;-75
2022/10/26 02:35:28;;;;;;;28.40;14.20;;;;;;;11.58;75.04;99274.63;103091;1298;112283;-75
2022/10/26 02:38:03;;;;;;;26.80;13.50;;;;;;;11.60;75.19;99277.90;103109;1290;99230;-76
2022/10/26 02:40:33;;;;;;;24.50;12.80;;;;;;;11.60;75.18;99279.28;103103;1296;107207;-76
2022/10/26 02:43:07;;;;;;;23.90;13.10;;;;;;;11.61;75.20;99280.66;103120;1298;99221;-75
2022/10/26 02:45:46;;;;;;;25.60;13.30;;;;;;;11.61;75.18;99276.71;103076;1303;99760;-75
2022/10/26 02:48:15;;;;;;;24.70;12.30;;;;;;;11.62;75.23;99280.57;103029;1303;112357;-75
2022/10/26 02:51:06;;;;;;;24.50;13.50;;;;;;;11.63;75.24;99281.59;103087;1297;98430;-76
2022/10/26 02:54:07;;;;;;;25.70;12.70;;;;;;;11.63;75.23;99282.77;102936;1299;107500;-76
2022/10/26 02:56:47;;;;;;;25.40;13.50;;;;;;;11.63;75.25;99278.01;103022;1297;99226;-75
2022/10/26 02:59:18;;;;;;;25.60;13.30;;;;;;;11.63;75.25;99280.86;103083;1307;99232;-76
2022/10/26 03:01:47;;;;;;;23.80;12.40;;;;;;;11.63;75.25;99285.10;102988;1300;111301;-75
2022/10/26 03:04:15;;;;;;;22.70;11.30;;;;;;;11.63;75.32;99284.55;103087;1297;99351;-74
2022/10/26 03:06:53;;;;;;;24.70;12.60;;;;;;;11.64;75.35;99288.93;103069;1290;107235;-75
2022/10/26 03:09:21;;;;;;;27.90;13.80;;;;;;;11.65;75.38;99291.00;103033;1305;99354;-74
2022/10/26 03:11:53;;;;;;;27.10;12.60;;;;;;;11.66;75.32;99295.73;103031;1297;99238;-74
2022/10/26 03:14:20;;;;;;;23.70;12.40;;;;;;;11.66;75.39;99296.77;103051;1303;112427;-74
2022/10/26 03:16:48;;;;;;;24.10;12.80;;;;;;;11.68;75.34;99301.48;103053;1300;99249;-74
2022/10/26 03:19:21;;;;;;;22.60;11.80;;;;;;;11.69;75.37;99301.59;102923;1299;106556;-74
2022/10/26 03:21:49;;;;;;;22.60;12.00;;;;;;;11.69;75.40;99299.57;103050;1297;99321;-74
2022/10/26 03:24:16;;;;;;;24.50;13.10;;;;;;;11.71;75.33;99302.48;103054;1296;99232;-74
2022/10/26 03:26:46;;;;;;;28.00;14.10;;;;;;;11.72;75.41;99305.40;102883;1306;112448;-74
2022/10/26 03:29:13;;;;;;;27.70;12.60;;;;;;;11.72;75.33;99302.92;103054;1303;99340;-75
2022/10/26 03:31:41;;;;;;;26.70;13.10;;;;;;;11.72;75.30;99306.30;103052;1300;107131;-77
2022/10/26 03:34:09;;;;;;;25.70;13.40;;;;;;;11.72;75.35;99303.45;103072;1302;99250;-77
2022/10/26 03:36:38;;;;;;;25.80;13.60;;;;;;;11.73;75.49;99304.29;103014;1299;98841;-77
2022/10/26 03:39:08;;;;;;;23.90;12.90;;;;;;;11.73;75.53;99304.61;103047;1305;112643;-78
2022/10/26 03:41:36;;;;;;;23.00;12.60;;;;;;;11.73;75.43;99306.40;103035;1303;99335;-76
2022/10/26 03:44:05;;;;;;;25.50;13.70;;;;;;;11.74;75.54;99304.91;103069;1298;106191;-76
2022/10/26 03:46:33;;;;;;;26.40;14.00;;;;;;;11.75;75.58;99309.66;103053;1297;99226;-74
2022/10/26 03:49:01;;;;;;;23.00;12.50;;;;;;;11.75;75.50;99307.82;103043;1297;99498;-74
2022/10/26 03:51:29;;;;;;;25.10;12.80;;;;;;;11.77;75.49;99303.64;103185;1307;112539;-74
2022/10/26 03:53:56;;;;;;;25.80;14.00;;;;;;;11.79;75.45;99304.96;103157;1298;99362;-74
2022/10/26 03:56:24;;;;;;;24.20;12.50;;;;;;;11.78;75.49;99305.00;103122;1297;107176;-74
2022/10/26 03:58:53;;;;;;;26.50;13.00;;;;;;;11.77;75.53;99303.45;103142;1304;99392;-75
2022/10/26 04:01:25;;;;;;;28.60;12.60;;;;;;;11.77;75.43;99303.09;103173;1296;98695;-76
2022/10/26 04:03:53;;;;;;;25.70;13.10;;;;;;;11.77;75.47;99305.75;103002;1300;112493;-76
2022/10/26 04:06:23;;;;;;;22.20;12.70;;;;;;;11.78;75.43;99305.54;103092;1290;99962;-77
2022/10/26 04:08:52;;;;;;;23.50;12.80;;;;;;;11.78;75.56;99306.77;103100;1297;107407;-76
2022/10/26 04:11:21;;;;;;;27.10;12.30;;;;;;;11.78;75.44;99303.38;103110;1297;99240;-77
2022/10/26 04:13:48;;;;;;;24.20;12.80;;;;;;;11.79;75.60;99302.42;103047;1303;98032;-76
2022/10/26 04:16:16;;;;;;;26.00;13.20;;;;;;;11.80;75.59;99299.67;103022;1303;112382;-77
2022/10/26 04:18:45;;;;;;;25.70;12.70;;;;;;;11.82;75.56;99302.23;102986;1298;99327;-76
2022/10/26 04:21:15;;;;;;;27.00;12.70;;;;;;;11.82;75.50;99300.30;103034;1297;108120;-76
2022/10/26 04:23:44;;;;;;;24.10;12.60;;;;;;;11.82;75.54;99304.36;103084;1303;99663;-76
2022/10/26 04:26:13;;;;;;;26.10;13.60;;;;;;;11.81;75.54;99306.71;103079;1304;99271;-72
2022/10/26 04:28:40;;;;;;;24.20;12.70;;;;;;;11.81;75.45;99307.97;103014;1304;112408;-73
2022/10/26 04:31:08;;;;;;;26.60;12.40;;;;;;;11.80;75.58;99310.55;103035;1304;99374;-73
2022/10/26 04:33:36;;;;;;;24.10;13.20;;;;;;;11.79;75.55;99313.61;103022;1299;107367;-74
2022/10/26 04:36:04;;;;;;;24.70;12.70;;;;;;;11.78;75.52;99312.80;103032;1304;99343;-73
2022/10/26 04:38:31;;;;;;;23.80;11.90;;;;;;;11.76;75.58;99308.67;103103;1296;99134;-73
2022/10/26 04:41:01;;;;;;;25.30;12.60;;;;;;;11.75;75.58;99313.36;103045;1296;113633;-73
2022/10/26 04:43:29;;;;;;;27.80;13.20;;;;;;;11.74;75.53;99315.40;103034;1298;158118;-74
2022/10/26 04:45:57;;;;;;;25.20;12.60;;;;;;;11.74;75.51;99320.19;103137;1296;105499;-73
2022/10/26 04:48:25;;;;;;;23.50;12.10;;;;;;;11.74;75.68;99321.42;103126;1297;99348;-74
2022/10/26 04:50:53;;;;;;;26.70;13.30;;;;;;;11.75;75.62;99321.02;103079;1304;99261;-74
2022/10/26 04:53:21;;;;;;;26.40;12.70;;;;;;;11.76;75.67;99325.73;103043;1298;112388;-74
2022/10/26 04:55:49;;;;;;;26.40;12.90;;;;;;;11.75;75.67;99322.39;103057;1300;99235;-74
2022/10/26 04:58:16;;;;;;;22.50;11.90;;;;;;;11.76;75.68;99320.95;103040;1296;107402;-73
2022/10/26 05:00:44;;;;;;;23.00;12.40;;;;;;;11.77;75.72;99325.16;103043;1296;99312;-73
2022/10/26 05:03:12;;;;;;;24.20;12.60;;;;;;;11.76;75.74;99321.63;103059;1297;96579;-73
2022/10/26 05:05:40;;;;;;;24.80;12.80;;;;;;;11.77;75.72;99326.35;103190;1296;111617;-73
2022/10/26 05:08:08;;;;;;;26.00;13.10;;;;;;;11.77;75.71;99328.52;103129;1304;99317;-75
2022/10/26 05:10:35;;;;;;;27.40;12.60;;;;;;;11.78;75.74;99324.55;103026;1296;107491;-71
2022/10/26 05:13:03;;;;;;;25.80;13.20;;;;;;;11.78;75.72;99327.70;103022;1304;99321;-74
2022/10/26 05:15:31;;;;;;;24.90;13.60;;;;;;;11.79;75.75;99326.96;103043;1303;96579;-75
2022/10/26 05:18:02;;;;;;;23.00;12.40;;;;;;;11.79;75.72;99333.37;103049;1297;112048;-75
2022/10/26 05:20:33;;;;;;;;;;;;;;;11.79;75.69;99337.63;103123;1299;97745;-73
2022/10/26 05:23:07;;;;;;;23.90;11.80;;;;;;;11.78;75.79;99340.57;103139;1296;106269;-73
2022/10/26 05:25:38;;;;;;;24.80;12.40;;;;;;;11.79;75.74;99341.55;103016;1304;99398;-75
2022/10/26 05:28:10;;;;;;;22.50;12.20;;;;;;;11.79;75.68;99343.87;103055;1298;99337;-74
2022/10/26 05:30:41;;;;;;;25.50;13.10;;;;;;;11.78;75.78;99343.89;103137;1303;112542;-74
2022/10/26 05:33:13;;;;;;;26.30;12.50;;;;;;;11.77;75.64;99344.31;103086;1304;99327;-75
2022/10/26 05:35:42;;;;;;;26.40;12.90;;;;;;;11.75;75.74;99345.66;103037;1304;107216;-74
2022/10/26 05:38:16;;;;;;;27.00;13.00;;;;;;;11.75;75.77;99348.16;103026;1297;99811;-74
2022/10/26 05:40:53;;;;;;;24.20;13.60;;;;;;;11.76;75.69;99353.98;103045;1303;100030;-73
2022/10/26 05:43:23;;;;;;;26.80;13.10;;;;;;;11.76;75.74;99352.59;104866;1305;112694;-74
2022/10/26 05:45:50;;;;;;;27.60;13.90;;;;;;;11.77;75.68;99358.90;103002;1305;97847;-73
2022/10/26 05:48:21;;;;;;;27.80;13.00;;;;;;;11.78;75.87;99354.58;103107;1303;107518;-75
2022/10/26 05:50:49;;;;;;;24.10;14.10;;;;;;;11.80;75.80;99355.30;103046;1304;99229;-73
2022/10/26 05:53:17;;;;;;;28.30;13.60;;;;;;;11.80;75.64;99353.71;103096;1303;99118;-74
2022/10/26 05:55:46;;;;;;;28.60;13.50;;;;;;;11.82;75.79;99355.52;103093;1296;112516;-73
2022/10/26 05:58:15;;;;;;;26.80;13.40;;;;;;;11.83;75.72;99357.91;103150;1288;99196;-73
2022/10/26 06:01:06;;;;;;;26.10;13.50;;;;;;;11.85;75.86;99361.67;103152;1294;108788;-74
2022/10/26 06:04:07;;;;;;;26.90;14.20;;;;;;;11.87;75.76;99364.19;103207;1296;99117;-74
2022/10/26 06:06:45;;;;;;;27.00;13.10;;;;;;;11.90;75.81;99365.55;103153;1303;98298;-74
2022/10/26 06:09:14;;;;;;;28.60;14.10;;;;;;;11.91;75.76;99365.48;103129;1304;112495;-73
2022/10/26 06:11:43;;;;;;;26.80;13.20;;;;;;;11.92;75.79;99368.11;103080;1304;99225;-73
2022/10/26 06:14:11;;;;;;;26.70;13.20;;;;;;;11.92;75.78;99372.55;103072;1305;107217;-72
2022/10/26 06:17:00;;;;;;;25.00;13.50;;;;;;;11.91;75.74;99377.61;103063;1306;99405;-74
2022/10/26 06:19:36;;;;;;;31.50;13.80;;;;;;;11.90;75.69;99383.69;103084;1298;96511;-74
2022/10/26 06:22:42;;;;;;;26.20;13.30;;;;;;;11.91;75.81;99384.54;103090;1305;112496;-73
2022/10/26 06:25:31;;;;;;;28.30;13.70;;;;;;;11.91;75.78;99388.08;103110;1306;99100;-74
2022/10/26 06:28:37;;;;;;;29.70;13.70;;;;;;;11.92;75.77;99395.84;103162;1303;106569;-74
2022/10/26 06:31:07;;;;;;;24.30;13.50;;;;;;;11.97;75.73;99396.91;103079;1307;99232;-75
2022/10/26 06:33:37;;;;;;;24.40;12.90;;;;;;;12.01;75.90;99398.73;103119;1299;98249;-74
2022/10/26 06:36:22;;;;;;;25.40;12.80;;;;;;;12.06;75.97;99405.33;103114;1302;112286;-75
2022/10/26 06:38:58;;;;;;;26.10;13.30;;;;;;;12.13;75.97;99401.65;103072;1305;99309;-75
2022/10/26 06:41:33;;;;;;;25.90;12.20;;;;;;;12.17;75.90;99407.52;103076;1303;107504;-75
2022/10/26 06:44:03;;;;;;;25.70;13.00;;;;;;;12.19;75.90;99404.41;103130;1303;99794;-75
2022/10/26 06:46:52;;;;;;;22.80;11.80;;;;;;;12.20;75.77;99407.17;103026;1297;99353;-74
2022/10/26 06:49:32;;;;;;;24.50;12.30;;;;;;;12.21;75.82;99408.15;103101;1298;112534;-76
2022/10/26 06:52:12;;;;;;;26.40;13.40;;;;;;;12.24;75.80;99412.75;103075;1305;99298;-75
2022/10/26 06:54:46;;;;;;;23.60;12.70;;;;;;;12.28;75.88;99410.61;103089;1300;107573;-77
2022/10/26 06:57:22;;;;;;;27.40;12.80;;;;;;;12.31;75.92;99413.08;103069;1291;99393;-74
2022/10/26 07:00:00;;;;;;;25.90;12.90;;;;;;;12.33;75.85;99414.20;103080;1306;96465;-74
2022/10/26 07:02:31;;;;;;;23.90;12.80;;;;;;;12.37;75.94;99419.41;103122;1300;112780;-76
2022/10/26 07:05:02;;;;;;;21.50;11.70;;;;;;;12.43;75.92;99417.34;103140;1296;96572;-75
2022/10/26 07:07:32;;;;;;;24.40;12.20;;;;;;;12.53;75.85;99419.67;103068;1287;107461;-74
2022/10/26 07:10:00;;;;;;;24.60;12.40;;;;;;;12.62;75.89;99420.04;102979;1305;98023;-73
2022/10/26 07:12:31;;;;;;;22.80;12.10;;;;;;;12.68;75.90;99419.74;103087;1300;99317;-73
2022/10/26 07:15:04;;;;;;;23.20;11.60;;;;;;;12.73;75.88;99420.15;103062;1303;112465;-74
2022/10/26 07:17:42;;;;;;;22.40;11.70;;;;;;;12.80;75.82;99420.64;103097;1298;99373;-73
2022/10/26 07:20:12;;;;;;;22.80;11.90;;;;;;;12.90;75.82;99426.45;103063;1298;107458;-74
2022/10/26 07:22:41;;;;;;;27.70;12.90;;;;;;;13.00;75.84;99429.48;103038;1290;99247;-73
2022/10/26 07:25:12;;;;;;;24.20;11.80;;;;;;;13.08;75.78;99432.18;103060;1304;99236;-73
2022/10/26 07:27:40;;;;;;;26.10;12.30;;;;;;;13.16;75.78;99435.05;103076;1304;112313;-74
2022/10/26 07:30:10;;;;;;;23.80;11.70;;;;;;;13.22;75.73;99438.83;103136;1304;99253;-73
2022/10/26 07:32:39;;;;;;;23.30;11.50;;;;;;;13.27;75.64;99438.43;103157;1303;107655;-73
2022/10/26 07:35:07;;;;;;;24.40;12.10;;;;;;;13.32;75.73;99439.95;103183;1297;99315;-74
2022/10/26 07:37:35;;;;;;;22.70;11.80;;;;;;;13.36;75.69;99439.67;103174;1304;99291;-74
2022/10/26 07:40:05;;;;;;;24.80;11.70;;;;;;;13.37;75.68;99443.84;103105;1304;112482;-73
2022/10/26 07:42:36;;;;;;;24.10;12.60;;;;;;;13.35;75.61;99439.20;103124;1299;99037;-74
2022/10/26 07:45:09;;;;;;;25.70;11.30;;;;;;;13.33;75.49;99443.69;103110;1303;107527;-74
2022/10/26 07:47:37;;;;;;;23.30;12.30;;;;;;;13.30;75.50;99444.09;103117;1299;99319;-74
2022/10/26 07:50:07;;;;;;;27.70;12.20;;;;;;;13.24;75.53;99442.36;103120;1307;99408;-74
2022/10/26 07:52:35;;;;;;;27.70;12.60;;;;;;;13.21;75.50;99443.85;103104;1306;113748;-74
2022/10/26 07:55:09;;;;;;;26.80;12.80;;;;;;;13.18;75.51;99446.95;103074;1307;99260;-74
2022/10/26 07:57:38;;;;;;;28.00;12.60;;;;;;;13.14;75.56;99444.73;103001;1299;107489;-74
2022/10/26 08:00:10;;;;;;;26.40;12.60;;;;;;;13.13;75.55;99443.61;103114;1306;97663;-74
2022/10/26 08:02:37;;;;;;;26.60;12.80;;;;;;;13.11;75.57;99445.73;103129;1298;99646;-74
2022/10/26 08:05:05;;;;;;;24.00;13.70;;;;;;;13.08;75.58;99440.73;103085;1305;111104;-73
2022/10/26 08:07:42;;;;;;;26.10;12.90;;;;;;;13.05;75.52;99435.96;103086;1303;99759;-73
2022/10/26 08:10:12;;;;;;;28.80;13.40;;;;;;;13.06;75.50;99440.05;103117;1303;107162;-74
2022/10/26 08:12:42;;;;;;;23.90;13.20;;;;;;;13.06;75.64;99444.27;103121;1297;99333;-74
2022/10/26 08:15:10;;;;;;;24.90;13.00;;;;;;;13.07;75.63;99443.52;103207;1297;99258;-73
2022/10/26 08:17:40;;;;;;;26.60;12.90;;;;;;;13.09;75.56;99442.31;103203;1304;112569;-74
2022/10/26 08:20:10;;;;;;;24.80;13.50;;;;;;;13.11;75.64;99440.90;103226;1298;99090;-75
2022/10/26 08:22:38;;;;;;;25.10;12.60;;;;;;;13.14;75.53;99441.36;103134;1303;107142;-74
2022/10/26 08:25:06;;;;;;;28.50;13.40;;;;;;;13.19;75.57;99444.35;103140;1304;99248;-74
2022/10/26 08:27:35;;;;;;;27.20;12.60;;;;;;;13.23;75.66;99444.75;103144;1304;99237;-73
2022/10/26 08:30:03;;;;;;;26.70;12.20;;;;;;;13.29;75.58;99445.89;103087;1307;112584;-74
2022/10/26 08:32:33;;;;;;;21.50;10.50;;;;;;;13.40;75.66;99445.83;103120;1300;97895;-74
2022/10/26 08:35:00;;;;;;;22.80;10.40;;;;;;;13.58;75.64;99444.10;103121;1303;107440;-73
2022/10/26 08:37:30;;;;;;;23.70;10.50;;;;;;;13.79;75.55;99442.02;103096;1300;99314;-73
2022/10/26 08:39:58;;;;;;;25.10;10.50;;;;;;;14.05;75.56;99438.73;103147;1303;99900;-73
2022/10/26 08:42:39;;;;;;;24.10;9.90;;;;;;;14.33;75.49;99442.34;103128;1300;112436;-74
2022/10/26 08:45:30;;;;;;;24.90;10.20;;;;;;;14.58;75.37;99442.04;103144;1299;96475;-74
2022/10/26 08:48:16;;;;;;;22.10;9.10;;;;;;;14.87;75.27;99437.20;103071;1303;107131;-74
2022/10/26 08:50:56;;;;;;;25.70;9.60;;;;;;;15.05;75.14;99432.77;103119;1291;99697;-74
2022/10/26 08:53:37;;;;;;;20.30;8.10;;;;;;;15.28;75.18;99441.02;103156;1305;99402;-77
2022/10/26 08:56:19;;;;;;;19.50;8.20;;;;;;;15.58;75.20;99439.35;103136;1294;112187;-74
2022/10/26 08:59:19;;;;;;;19.60;8.40;;;;;;;15.92;75.23;99445.30;103104;1305;99331;-75
2022/10/26 09:01:49;;;;;;;16.70;7.30;;;;;;;16.11;75.00;99441.29;103133;1303;107478;-74
2022/10/26 09:04:27;;;;;;;19.60;7.30;;;;;;;16.22;74.60;99441.80;103102;1291;99262;-75
2022/10/26 09:07:23;;;;;;;19.40;6.90;;;;;;;16.45;74.83;99439.38;103178;1305;96462;-73
2022/10/26 09:10:13;;;;;;;20.80;7.50;;;;;;;16.93;74.92;99442.65;103119;1304;112191;-74
2022/10/26 09:13:01;;;;;;;18.90;6.70;;;;;;;17.33;74.30;99444.11;103128;1297;99253;-74
2022/10/26 09:16:01;;;;;;;18.00;6.70;;;;;;;17.50;73.86;99445.41;103124;1298;107255;-73
2022/10/26 09:18:46;;;;;;;16.10;5.70;;;;;;;17.69;73.59;99443.06;102948;1294;99264;-73
2022/10/26 09:21:41;;;;;;;14.10;6.10;;;;;;;18.06;73.61;99442.02;103106;1302;99278;-73
2022/10/26 09:24:23;;;;;;;16.30;4.80;;;;;;;18.33;73.49;99445.34;103102;1302;112497;-73
2022/10/26 09:26:58;;;;;;;14.10;5.30;;;;;;;18.52;73.64;99447.39;103132;1295;96483;-75
2022/10/26 09:29:34;;;;;;;16.50;5.00;;;;;;;18.77;73.88;99444.23;103103;1300;107473;-74
2022/10/26 09:32:14;;;;;;;13.50;4.20;;;;;;;18.92;73.50;99445.73;103086;1303;99212;-73
2022/10/26 09:34:54;;;;;;;16.80;5.00;;;;;;;18.96;73.09;99445.59;103102;1304;96493;-74
2022/10/26 09:37:35;;;;;;;14.10;5.10;;;;;;;19.00;72.83;99449.09;103169;1304;112447;-74
2022/10/26 09:40:18;;;;;;;11.00;4.30;;;;;;;18.90;72.63;99458.63;103212;1303;99243;-73
2022/10/26 09:43:04;;;;;;;13.00;4.60;;;;;;;18.90;72.92;99458.64;103088;1303;107222;-73
2022/10/26 09:45:38;;;;;;;13.60;3.90;;;;;;;18.99;72.48;99461.39;103124;1296;99193;-73
2022/10/26 09:48:46;;;;;;;11.20;3.40;;;;;;;19.01;72.41;99464.63;103035;1307;99332;-72
2022/10/26 09:51:18;;;;;;;12.00;3.50;;;;;;;18.98;72.03;99464.58;103120;1296;112523;-71
2022/10/26 09:53:48;;;;;;;6.90;3.20;;;;;;;18.91;72.28;99466.80;103159;1302;99332;-72
2022/10/26 09:56:18;;;;;;;11.60;3.70;;;;;;;18.81;71.49;99468.92;103107;1306;107210;-72
2022/10/26 09:59:04;;;;;;;8.80;3.80;;;;;;;18.70;70.60;99470.21;103085;1305;99353;-70
2022/10/26 10:01:36;;;;;;;7.40;3.30;;;;;;;18.55;70.90;99472.38;103161;1304;99902;-72
2022/10/26 10:04:13;;;;;;;7.20;3.20;;;;;;;18.41;71.13;99470.41;103077;1305;112191;-73
2022/10/26 10:06:44;;;;;;;8.50;3.30;;;;;;;18.33;71.26;99469.72;103108;1302;97201;-73
2022/10/26 10:09:23;;;;;;;14.10;4.10;;;;;;;18.25;71.22;99474.40;103102;1306;107189;-73
2022/10/26 10:11:56;;;;;;;13.30;3.80;;;;;;;18.26;71.34;99472.02;103150;1298;99304;-73
2022/10/26 10:14:27;;;;;;;;;;;;;;;18.25;71.08;99478.55;103222;1303;98331;-73
2022/10/26 10:16:59;;;;;;;12.40;4.60;;;;;;;18.14;70.21;99478.58;103167;1296;111492;-74
2022/10/26 10:19:30;;;;;;;11.30;3.90;;;;;;;18.00;70.41;99477.95;103213;1298;99243;-73
2022/10/26 10:22:08;;;;;;;15.10;4.70;;;;;;;17.98;70.55;99474.75;103146;1297;107497;-75
2022/10/26 10:24:42;;;;;;;14.20;4.50;;;;;;;17.84;70.13;99475.91;103159;1298;99232;-73
2022/10/26 10:27:15;;;;;;;12.70;4.30;;;;;;;17.70;70.07;99470.57;103244;1290;99332;-73
2022/10/26 10:29:50;;;;;;;12.90;4.50;;;;;;;17.64;70.14;99478.92;103132;1302;112501;-72
2022/10/26 10:32:22;;;;;;;11.50;4.90;;;;;;;17.70;70.05;99472.39;103151;1302;99248;-73
2022/10/26 10:34:55;;;;;;;11.60;3.90;;;;;;;17.80;70.32;99472.16;103118;1303;107324;-74
2022/10/26 10:37:29;;;;;;;13.30;4.40;;;;;;;17.94;70.18;99466.86;103152;1300;99248;-73
2022/10/26 10:40:05;;;;;;;14.20;5.10;;;;;;;18.07;69.88;99468.13;103178;1305;99237;-74
2022/10/26 10:42:40;;;;;;;11.10;4.40;;;;;;;18.24;69.77;99464.01;103106;1302;112427;-74
2022/10/26 10:45:20;;;;;;;15.10;4.90;;;;;;;18.36;69.50;99462.27;103123;1303;96546;-72
2022/10/26 10:48:05;;;;;;;10.30;4.70;;;;;;;18.39;69.30;99464.27;103083;1303;107114;-73
2022/10/26 10:50:35;;;;;;;15.40;5.40;;;;;;;18.34;68.77;99457.25;103188;1304;99372;-73
2022/10/26 10:53:23;;;;;;;14.20;5.50;;;;;;;18.28;68.53;99460.52;103180;1295;99341;-74
2022/10/26 10:56:20;;;;;;;15.60;5.70;;;;;;;18.25;68.44;99462.58;103096;1296;112353;-75
2022/10/26 10:59:25;;;;;;;13.80;4.70;;;;;;;18.25;68.74;99459.96;103195;1302;99291;-75
2022/10/26 11:02:33;;;;;;;20.50;6.60;;;;;;;18.34;68.72;99456.43;103162;1304;107103;-74
2022/10/26 11:05:08;;;;;;;11.90;4.90;;;;;;;18.37;68.63;99458.21;102988;1303;96524;-75
2022/10/26 11:07:51;;;;;;;10.00;5.10;;;;;;;18.44;68.46;99458.42;103151;1298;99228;-73
2022/10/26 11:10:25;;;;;;;12.30;5.20;;;;;;;18.45;67.96;99463.69;103123;1303;112526;-73
2022/10/26 11:13:02;;;;;;;14.90;5.20;;;;;;;18.32;67.70;99460.55;103132;1305;99315;-75
2022/10/26 11:15:37;;;;;;;13.60;5.10;;;;;;;18.21;67.34;99463.76;103065;1303;106497;-73
2022/10/26 11:18:17;;;;;;;13.10;5.30;;;;;;;18.14;67.61;99461.85;103157;1310;99238;-74
2022/10/26 11:20:53;;;;;;;14.20;4.40;;;;;;;18.15;67.69;99464.14;103166;1304;99418;-72
2022/10/26 11:23:50;;;;;;;13.90;4.70;;;;;;;18.16;67.45;99462.60;103140;1303;112498;-76
2022/10/26 11:26:34;;;;;;;14.60;4.90;;;;;;;18.10;67.41;99465.20;103070;1303;100291;-72
2022/10/26 11:29:17;;;;;;;12.40;5.00;;;;;;;17.95;67.29;99464.96;103019;1304;107392;-74
2022/10/26 11:31:54;;;;;;;12.80;5.20;;;;;;;17.89;67.03;99464.85;103011;1303;97804;-74
2022/10/26 11:34:34;;;;;;;15.80;5.20;;;;;;;17.81;66.96;99465.02;103048;1304;99338;-74
2022/10/26 11:37:37;;;;;;;17.00;5.90;;;;;;;17.70;66.94;99462.89;102928;1304;112494;-74
2022/10/26 11:40:28;;;;;;;16.00;4.90;;;;;;;17.60;67.07;99463.45;102929;1306;99389;-71
2022/10/26 11:43:19;;;;;;;12.20;5.00;;;;;;;17.64;67.00;99463.80;103136;1298;107452;-76
2022/10/26 11:46:11;;;;;;;15.60;5.30;;;;;;;17.75;66.95;99460.60;102664;1305;99490;-75